Flight Track Log - Related Links

Times and Time Zones

All times are in EDT time to prevent confusion due to time zone crossing. See the AAY846 flight status page for this flight to view local times or setup timezone preferences in your user account.

Time Position Orientation Groundspeed Altitude Reporting Facility
EDT Latitude Longitude Course Direction KTS MPH feet Rate Location/Type
Thu 08:25:30 AM 27.9000 -82.6833 180° South 180 207 800  Level Tampa TRACON
Thu 08:26:12 AM 27.8500 -82.6833 180° South 189 217 2,300 2,059 Climbing Tampa TRACON
Thu 08:27:12 AM 27.8667 -82.7333 291° West 222 255 4,300 2,250 Climbing Tampa TRACON
Thu 08:28:12 AM 27.9333 -82.7167 12° North 255 293 6,800 2,102 Climbing Tampa TRACON
Thu 08:30:09 AM 28.0861 -82.6994 North 298 343 10,500 1,719 Climbing Miami Center
Thu 08:31:10 AM 28.1819 -82.6989 360° North 350 403 11,900 1,659 Climbing Miami Center
Thu 08:32:12 AM 28.2825 -82.7392 341° North 378 435 13,900 2,226 Climbing Miami Center
Thu 08:33:14 AM 28.3844 -82.7833 339° North 388 447 16,500 2,244 Climbing Miami Center
Thu 08:34:15 AM 28.4869 -82.8250 340° North 388 447 18,500 1,619 Climbing Miami Center
Thu 08:35:20 AM 28.6236 -82.8856 339° North 396 456 19,900 1,440 Climbing Jacksonville Center
Thu 08:36:20 AM 28.7364 -82.9353 339° North 416 479 21,500 1,488 Climbing Jacksonville Center
Thu 08:37:21 AM 28.8489 -82.9897 337° Northwest 427 491 22,900 1,400 Climbing Jacksonville Center
Thu 08:38:20 AM 28.9681 -83.0444 338° Northwest 444 511 24,300 1,361 Climbing Jacksonville Center
Thu 08:39:20 AM 29.0847 -83.0969 339° North 449 517 25,600 1,200 Climbing Jacksonville Center
Thu 08:40:20 AM 29.2036 -83.1542 337° Northwest 454 522 26,700 1,250 Climbing Jacksonville Center
Thu 08:41:20 AM 29.3244 -83.2094 338° Northwest 459 528 28,100 1,650 Climbing Jacksonville Center
Thu 08:42:20 AM 29.4372 -83.2644 337° Northwest 454 522 30,000 1,650 Climbing Jacksonville Center
Thu 08:43:20 AM 29.5497 -83.3200 337° Northwest 449 517 31,400 1,000 Climbing Jacksonville Center
Thu 08:44:20 AM 29.6622 -83.3731 338° Northwest 438 504 32,000 250 Climbing Jacksonville Center
Thu 08:45:20 AM 29.7644 -83.4189 339° North 438 504 31,900 -50 Descending Jacksonville Center
Thu 08:46:20 AM 29.8789 -83.4769 336° Northwest 438 504 31,900  Level Jacksonville Center
Thu 08:47:20 AM 29.9936 -83.5281 339° North 438 504 31,900  Level Jacksonville Center
Thu 08:48:20 AM 30.1081 -83.5817 338° Northwest 438 504 31,900  Level Jacksonville Center
Thu 08:49:20 AM 30.2225 -83.6403 336° Northwest 443 510 31,900  Level Jacksonville Center
Thu 08:50:20 AM 30.3369 -83.6939 338° Northwest 443 510 31,900  Level Jacksonville Center
Thu 08:51:20 AM 30.4517 -83.7481 338° Northwest 438 504 31,900 50 Level Jacksonville Center
Thu 08:52:20 AM 30.5722 -83.8047 338° Northwest 438 504 32,000 50 Climbing Jacksonville Center
Thu 08:53:20 AM 30.6847 -83.8589 338° Northwest 433 498 32,000  Level Jacksonville Center
Thu 08:54:20 AM 30.7989 -83.9156 337° Northwest 438 504 32,000  Level Jacksonville Center
Thu 08:55:20 AM 30.9114 -83.9725 337° Northwest 438 504 32,000  Level Jacksonville Center
Thu 08:56:20 AM 31.0256 -84.0272 338° Northwest 438 504 32,000  Level Jacksonville Center
Thu 08:57:20 AM 31.1358 -84.0819 337° Northwest 438 504 32,000  Level Jacksonville Center
Thu 08:59:46 AM 31.4147 -84.2164 338° Northwest 444 511 32,000  Level Atlanta Center
Thu 09:00:46 AM 31.5272 -84.2728 337° Northwest 444 511 32,000  Level Atlanta Center
Thu 09:01:46 AM 31.6397 -84.3292 337° Northwest 438 504 32,000  Level Atlanta Center
Thu 09:02:46 AM 31.7544 -84.3881 336° Northwest 443 510 32,000  Level Atlanta Center
Thu 09:03:46 AM 31.8692 -84.4447 337° Northwest 443 510 32,000  Level Atlanta Center
Thu 09:04:46 AM 31.9817 -84.5017 337° Northwest 437 503 32,000  Level Atlanta Center
Thu 09:05:46 AM 32.0817 -84.5486 338° Northwest 437 503 32,000  Level Atlanta Center
Thu 09:06:46 AM 32.1983 -84.6083 337° Northwest 443 510 32,000  Level Atlanta Center
Thu 09:07:46 AM 32.3003 -84.6606 337° Northwest 443 510 32,000  Level Atlanta Center
Thu 09:08:46 AM 32.4378 -84.7281 337° Northwest 438 504 32,000  Level Atlanta Center
Thu 09:09:46 AM 32.5272 -84.7731 337° Northwest 438 504 32,000  Level Atlanta Center
Thu 09:10:46 AM 32.6625 -84.8358 339° North 438 504 32,000  Level Atlanta Center
Thu 09:11:46 AM 32.7872 -84.9011 336° Northwest 451 519 32,000  Level Atlanta Center
Thu 09:12:46 AM 32.8767 -84.9539 334° Northwest 446 513 32,000  Level Atlanta Center
Thu 09:13:46 AM 32.9889 -85.0122 336° Northwest 441 507 32,000  Level Atlanta Center
Thu 09:14:46 AM 33.1011 -85.0681 337° Northwest 435 501 32,000  Level Atlanta Center
Thu 09:15:46 AM 33.2133 -85.1239 337° Northwest 441 507 32,000  Level Atlanta Center
Thu 09:16:46 AM 33.3256 -85.1850 336° Northwest 441 507 32,000  Level Atlanta Center
Thu 09:17:46 AM 33.4419 -85.2436 337° Northwest 441 507 32,000  Level Atlanta Center
Thu 09:18:46 AM 33.5542 -85.3000 337° Northwest 441 507 32,000  Level Atlanta Center
Thu 09:19:46 AM 33.6703 -85.3617 336° Northwest 441 507 32,000  Level Atlanta Center
Thu 09:20:46 AM 33.7844 -85.4208 337° Northwest 441 507 32,000  Level Atlanta Center
Thu 09:21:46 AM 33.9006 -85.4831 336° Northwest 441 507 32,000  Level Atlanta Center
Thu 09:22:46 AM 34.0167 -85.5425 337° Northwest 441 507 32,000  Level Atlanta Center
Thu 09:23:46 AM 34.1286 -85.6022 336° Northwest 441 507 32,000  Level Atlanta Center
Thu 09:24:46 AM 34.2447 -85.6622 337° Northwest 441 507 32,000  Level Atlanta Center
Thu 09:25:46 AM 34.3672 -85.7275 336° Northwest 436 502 32,000  Level Atlanta Center
Thu 09:26:46 AM 34.4667 -85.7772 338° Northwest 436 502 32,000  Level Atlanta Center
Thu 09:27:46 AM 34.5908 -85.8403 337° Northwest 441 507 32,000  Level Atlanta Center
Thu 09:28:35 AM 34.6675 -85.8833 335° Northwest 441 507 32,000  Level Memphis Center
Thu 09:29:37 AM 34.7867 -85.9475 336° Northwest 440 506 32,000  Level Memphis Center
Thu 09:30:39 AM 34.9125 -86.0147 336° Northwest 440 506 32,000  Level Memphis Center
Thu 09:31:41 AM 35.0253 -86.0758 336° Northwest 440 506 32,000  Level Memphis Center
Thu 09:32:44 AM 35.1367 -86.1372 336° Northwest 440 506 32,000  Level Memphis Center
Thu 09:33:46 AM 35.2472 -86.1978 336° Northwest 439 505 32,000  Level Memphis Center
Thu 09:34:48 AM 35.3553 -86.2539 337° Northwest 436 502 32,000  Level Memphis Center
Thu 09:35:50 AM 35.4844 -86.3269 335° Northwest 436 502 32,000  Level Memphis Center
Thu 09:36:52 AM 35.5958 -86.3867 336° Northwest 435 501 32,000  Level Memphis Center
Thu 09:37:54 AM 35.7083 -86.4478 336° Northwest 435 501 32,000  Level Memphis Center
Thu 09:38:56 AM 35.8194 -86.5108 335° Northwest 435 501 32,000  Level Memphis Center
Thu 09:39:58 AM 35.9300 -86.5708 336° Northwest 435 501 32,000  Level Memphis Center
Thu 09:41:00 AM 36.0406 -86.6319 336° Northwest 435 501 32,000  Level Memphis Center
Thu 09:42:02 AM 36.1508 -86.6931 336° Northwest 433 498 32,000  Level Memphis Center
Thu 09:43:04 AM 36.2764 -86.7661 335° Northwest 431 496 32,000  Level Memphis Center
Thu 09:44:06 AM 36.3708 -86.8225 334° Northwest 431 496 32,000  Level Memphis Center
Thu 09:45:08 AM 36.4919 -86.8919 335° Northwest 432 497 32,000  Level Memphis Center
Thu 09:46:10 AM 36.5994 -86.9569 334° Northwest 432 497 32,000  Level Memphis Center
Thu 09:47:12 AM 36.7264 -87.0325 335° Northwest 431 496 32,000  Level Memphis Center
Thu 09:48:14 AM 36.8350 -87.0981 334° Northwest 431 496 32,000  Level Memphis Center
Thu 09:49:16 AM 36.9433 -87.1633 334° Northwest 430 495 32,000  Level Memphis Center
Thu 09:50:18 AM 37.0525 -87.2283 335° Northwest 430 495 32,000  Level Memphis Center
Thu 09:51:20 AM 37.1614 -87.2936 334° Northwest 430 495 32,000  Level Memphis Center
Thu 09:52:22 AM 37.2697 -87.3592 334° Northwest 430 495 32,000  Level Memphis Center
Thu 09:53:24 AM 37.3781 -87.4253 334° Northwest 430 495 32,000  Level Memphis Center
Thu 09:54:11 AM 37.4689 -87.4808 334° Northwest 430 495 32,000  Level Indianapolis Center
Thu 09:55:13 AM 37.5772 -87.5472 334° Northwest 430 495 32,000  Level Indianapolis Center
Thu 09:56:16 AM 37.6858 -87.6133 334° Northwest 430 495 32,000  Level Indianapolis Center
Thu 09:57:18 AM 37.7917 -87.6772 335° Northwest 429 494 32,000  Level Indianapolis Center
Thu 09:58:20 AM 37.9208 -87.7578 334° Northwest 429 494 32,000  Level Indianapolis Center
Thu 09:59:22 AM 38.0300 -87.8219 335° Northwest 429 494 32,000 -532 Level Indianapolis Center
Thu 10:00:24 AM 38.1397 -87.8875 335° Northwest 429 494 30,900 -968 Descending Indianapolis Center
Thu 10:01:26 AM 38.2508 -87.9522 335° Northwest 431 496 30,000 -435 Descending Indianapolis Center
Thu 10:02:28 AM 38.3614 -88.0189 335° Northwest 433 498 30,000  Level Indianapolis Center
Thu 10:03:30 AM 38.4725 -88.0842 335° Northwest 433 498 30,000  Level Indianapolis Center
Thu 10:04:32 AM 38.5817 -88.1500 335° Northwest 433 498 30,000  Level Indianapolis Center
Thu 10:05:34 AM 38.6931 -88.2172 335° Northwest 434 499 30,000 -387 Level Indianapolis Center
Thu 10:06:36 AM 38.8261 -88.2972 335° Northwest 435 501 29,200 -1,113 Descending Indianapolis Center
Thu 10:07:38 AM 38.9383 -88.3639 335° Northwest 437 503 27,700 -1,440 Descending Indianapolis Center
Thu 10:08:41 AM 39.0511 -88.4325 335° Northwest 441 507 26,200 -1,440 Descending Indianapolis Center
Thu 10:09:43 AM 39.1661 -88.5025 335° Northwest 448 516 24,700 -1,500 Descending Indianapolis Center
Thu 10:10:45 AM 39.2794 -88.5697 335° Northwest 450 518 23,100 -871 Descending Indianapolis Center
Thu 10:11:47 AM 39.3781 -88.6333 334° Northwest 415 478 22,900 -629 Descending Indianapolis Center
Thu 10:12:49 AM 39.4783 -88.6942 335° Northwest 398 458 21,800 -1,113 Descending Indianapolis Center
Thu 10:13:51 AM 39.5944 -88.7669 334° Northwest 392 451 20,600 -1,279 Descending Indianapolis Center
Thu 10:15:05 AM 39.7067 -88.8364 335° Northwest 384 442 18,900 -1,445 Descending Kansas City Center
Thu 10:16:08 AM 39.7969 -88.9047 330° Northwest 380 437 17,300 -1,645 Descending Kansas City Center
Thu 10:17:09 AM 39.8786 -88.9800 325° Northwest 365 420 15,500 -1,392 Descending Kansas City Center
Thu 10:18:13 AM 39.9586 -89.0506 326° Northwest 354 407 14,400 -1,016 Descending Kansas City Center
Thu 10:19:13 AM 40.0375 -89.1214 326° Northwest 347 399 13,400 -942 Descending Kansas City Center
Thu 10:20:14 AM 40.1144 -89.1908 325° Northwest 342 394 12,500 -991 Descending Kansas City Center
Thu 10:21:02 AM 40.1911 -89.2622 325° Northwest 341 392 11,600 -811 Descending Chicago Center
Thu 10:22:05 AM 40.2669 -89.3306 325° Northwest 337 388 11,000 -576 Descending Chicago Center
Thu 10:23:07 AM 40.3469 -89.3894 331° Northwest 330 380 10,400 -871 Descending Chicago Center
Thu 10:24:09 AM 40.4217 -89.4317 337° Northwest 309 356 9,200 -1,452 Descending Chicago Center
Thu 10:25:11 AM 40.4903 -89.4675 338° Northwest 285 328 7,400 -2,226 Descending Chicago Center
Thu 10:26:13 AM 40.5556 -89.5047 337° Northwest 269 310 4,600 -2,565 Descending Chicago Center
Thu 10:27:15 AM 40.5992 -89.5856 305° West 239 275 2,100 -1,500 Descending Chicago Center
Thu 10:28:17 AM 40.6281 -89.6317 310° West 191 220 1,500 -576 Descending Chicago Center
Thu 10:29:20 AM 40.6511 -89.6739 306° West 158 182 900 -432 Descending Chicago Center
Thu 10:30:22 AM 40.6733 -89.7128 307° West 152 175 600 -290 Descending Chicago Center
Thu 10:32:00 AM 40.6642 -89.6933 143° Southeast  Level Estimated

Login

Don't have an account? Register now (free) for customized features, flight alerts, and more!